Aviation

Port-au-Prince

FTHA31 MTPP 161755
TAF MTPP 161755Z 1618/1718 10004KT 9999 FEW028
BECMG 1619/1623 30012KT
PROB40 TEMPO 1700/1706 4000 TSRA SCT014CB BKN030
BECMG 1708/1710 VRB02KT 9000 NSW FEW022
TEMPO 1714/1718 09012KT=


Cap-Haïtien

FTHA31 MTCH 161800
TAF MTCH 161800Z 1618/1718 03013KT 9000 FEW028TCU
PROB30 TEMPO 1703/1709 4500 SHRA SCT022CB SCT040
BECMG 1710/1712 VRB02KT 9000 NSW FEW020
FM171600 05012KT 9999 FEW025=